sensor_id;sensor_type;location;lat;lon;timestamp;P1;durP1;ratioP1;P2;durP2;ratioP2
18176;SDS011;9213;50.858;3.964;2023-09-19T00:00:30;11.20;;;2.70;;
18176;SDS011;9213;50.858;3.964;2023-09-19T00:02:58;14.73;;;2.67;;
18176;SDS011;9213;50.858;3.964;2023-09-19T00:05:27;13.67;;;3.33;;
18176;SDS011;9213;50.858;3.964;2023-09-19T00:07:57;8.57;;;2.70;;
18176;SDS011;9213;50.858;3.964;2023-09-19T00:10:24;12.33;;;2.53;;
18176;SDS011;9213;50.858;3.964;2023-09-19T00:12:52;7.13;;;2.27;;
18176;SDS011;9213;50.858;3.964;2023-09-19T00:15:20;10.30;;;3.43;;
18176;SDS011;9213;50.858;3.964;2023-09-19T00:17:47;13.87;;;2.60;;
18176;SDS011;9213;50.858;3.964;2023-09-19T00:20:17;10.70;;;2.50;;
18176;SDS011;9213;50.858;3.964;2023-09-19T00:22:47;8.83;;;2.47;;
18176;SDS011;9213;50.858;3.964;2023-09-19T00:25:15;14.53;;;2.93;;
18176;SDS011;9213;50.858;3.964;2023-09-19T00:27:43;8.27;;;2.50;;
18176;SDS011;9213;50.858;3.964;2023-09-19T00:30:12;9.57;;;2.83;;
18176;SDS011;9213;50.858;3.964;2023-09-19T00:32:44;12.80;;;3.10;;
18176;SDS011;9213;50.858;3.964;2023-09-19T00:35:12;12.73;;;2.83;;
18176;SDS011;9213;50.858;3.964;2023-09-19T00:37:41;9.03;;;2.50;;
18176;SDS011;9213;50.858;3.964;2023-09-19T00:40:10;10.73;;;3.07;;
18176;SDS011;9213;50.858;3.964;2023-09-19T00:42:40;10.20;;;2.87;;
18176;SDS011;9213;50.858;3.964;2023-09-19T00:45:08;12.17;;;2.57;;
18176;SDS011;9213;50.858;3.964;2023-09-19T00:47:37;10.00;;;2.50;;
18176;SDS011;9213;50.858;3.964;2023-09-19T00:50:04;12.43;;;2.47;;
18176;SDS011;9213;50.858;3.964;2023-09-19T00:52:33;8.67;;;2.37;;
18176;SDS011;9213;50.858;3.964;2023-09-19T00:55:02;5.13;;;2.23;;
18176;SDS011;9213;50.858;3.964;2023-09-19T00:57:31;8.73;;;2.63;;
18176;SDS011;9213;50.858;3.964;2023-09-19T00:59:58;11.27;;;2.40;;
18176;SDS011;9213;50.858;3.964;2023-09-19T01:02:30;12.70;;;2.40;;
18176;SDS011;9213;50.858;3.964;2023-09-19T01:04:57;10.07;;;2.60;;
18176;SDS011;9213;50.858;3.964;2023-09-19T01:07:24;10.83;;;2.70;;
18176;SDS011;9213;50.858;3.964;2023-09-19T01:09:51;8.97;;;2.50;;
18176;SDS011;9213;50.858;3.964;2023-09-19T01:12:22;10.33;;;2.60;;
18176;SDS011;9213;50.858;3.964;2023-09-19T01:14:59;9.83;;;3.13;;
18176;SDS011;9213;50.858;3.964;2023-09-19T01:17:34;7.97;;;2.33;;
18176;SDS011;9213;50.858;3.964;2023-09-19T01:20:16;9.17;;;2.27;;
18176;SDS011;9213;50.858;3.964;2023-09-19T01:22:52;8.73;;;2.53;;
18176;SDS011;9213;50.858;3.964;2023-09-19T01:25:49;9.40;;;2.33;;
18176;SDS011;9213;50.858;3.964;2023-09-19T01:28:34;11.77;;;2.83;;
18176;SDS011;9213;50.858;3.964;2023-09-19T01:31:13;7.07;;;2.10;;
18176;SDS011;9213;50.858;3.964;2023-09-19T01:33:53;8.60;;;2.57;;
18176;SDS011;9213;50.858;3.964;2023-09-19T01:36:25;9.27;;;2.30;;
18176;SDS011;9213;50.858;3.964;2023-09-19T01:38:54;13.50;;;2.50;;
18176;SDS011;9213;50.858;3.964;2023-09-19T01:41:26;11.17;;;2.80;;
18176;SDS011;9213;50.858;3.964;2023-09-19T01:43:57;14.13;;;3.37;;
18176;SDS011;9213;50.858;3.964;2023-09-19T01:46:33;12.77;;;2.90;;
18176;SDS011;9213;50.858;3.964;2023-09-19T01:49:04;12.77;;;3.40;;
18176;SDS011;9213;50.858;3.964;2023-09-19T01:51:42;11.97;;;2.50;;
18176;SDS011;9213;50.858;3.964;2023-09-19T01:54:18;11.03;;;3.20;;
18176;SDS011;9213;50.858;3.964;2023-09-19T01:56:53;12.00;;;3.53;;
18176;SDS011;9213;50.858;3.964;2023-09-19T01:59:31;14.50;;;3.23;;
18176;SDS011;9213;50.858;3.964;2023-09-19T02:02:04;16.80;;;3.17;;
18176;SDS011;9213;50.858;3.964;2023-09-19T02:04:33;11.37;;;2.70;;
18176;SDS011;9213;50.858;3.964;2023-09-19T02:07:01;13.97;;;3.00;;
18176;SDS011;9213;50.858;3.964;2023-09-19T02:09:30;15.07;;;2.93;;
18176;SDS011;9213;50.858;3.964;2023-09-19T02:11:59;16.53;;;3.17;;
18176;SDS011;9213;50.858;3.964;2023-09-19T02:14:26;11.03;;;2.80;;
18176;SDS011;9213;50.858;3.964;2023-09-19T02:16:54;11.63;;;2.83;;
18176;SDS011;9213;50.858;3.964;2023-09-19T02:19:22;11.83;;;2.70;;
18176;SDS011;9213;50.858;3.964;2023-09-19T02:21:49;9.53;;;2.70;;
18176;SDS011;9213;50.858;3.964;2023-09-19T02:24:17;9.93;;;2.90;;
18176;SDS011;9213;50.858;3.964;2023-09-19T02:26:44;11.70;;;2.70;;
18176;SDS011;9213;50.858;3.964;2023-09-19T02:29:12;9.60;;;2.37;;
18176;SDS011;9213;50.858;3.964;2023-09-19T02:31:39;11.83;;;2.80;;
18176;SDS011;9213;50.858;3.964;2023-09-19T02:34:06;12.40;;;2.80;;
18176;SDS011;9213;50.858;3.964;2023-09-19T02:36:35;9.37;;;2.90;;
18176;SDS011;9213;50.858;3.964;2023-09-19T02:39:02;12.33;;;2.37;;
18176;SDS011;9213;50.858;3.964;2023-09-19T02:41:31;14.63;;;3.73;;
18176;SDS011;9213;50.858;3.964;2023-09-19T02:43:58;11.70;;;2.63;;
18176;SDS011;9213;50.858;3.964;2023-09-19T02:46:26;9.73;;;3.43;;
18176;SDS011;9213;50.858;3.964;2023-09-19T02:48:53;14.20;;;2.83;;
18176;SDS011;9213;50.858;3.964;2023-09-19T02:51:21;8.17;;;2.50;;
18176;SDS011;9213;50.858;3.964;2023-09-19T02:53:49;9.13;;;2.40;;
18176;SDS011;9213;50.858;3.964;2023-09-19T02:56:17;10.93;;;2.33;;
18176;SDS011;9213;50.858;3.964;2023-09-19T02:58:44;9.10;;;2.37;;
18176;SDS011;9213;50.858;3.964;2023-09-19T03:01:13;9.90;;;2.67;;
18176;SDS011;9213;50.858;3.964;2023-09-19T03:03:40;13.57;;;2.93;;
18176;SDS011;9213;50.858;3.964;2023-09-19T03:06:07;8.17;;;2.23;;
18176;SDS011;9213;50.858;3.964;2023-09-19T03:08:35;9.07;;;2.63;;
18176;SDS011;9213;50.858;3.964;2023-09-19T03:11:05;8.83;;;2.50;;
18176;SDS011;9213;50.858;3.964;2023-09-19T03:13:36;9.90;;;2.73;;
18176;SDS011;9213;50.858;3.964;2023-09-19T03:16:03;8.80;;;2.83;;
18176;SDS011;9213;50.858;3.964;2023-09-19T03:18:31;13.90;;;2.60;;
18176;SDS011;9213;50.858;3.964;2023-09-19T03:20:58;9.53;;;2.83;;
18176;SDS011;9213;50.858;3.964;2023-09-19T03:23:26;9.13;;;2.63;;
18176;SDS011;9213;50.858;3.964;2023-09-19T03:25:53;9.67;;;2.37;;
18176;SDS011;9213;50.858;3.964;2023-09-19T03:28:22;11.27;;;3.00;;
18176;SDS011;9213;50.858;3.964;2023-09-19T03:30:59;10.80;;;2.50;;
18176;SDS011;9213;50.858;3.964;2023-09-19T03:33:26;10.87;;;3.13;;
18176;SDS011;9213;50.858;3.964;2023-09-19T03:35:53;9.17;;;2.37;;
18176;SDS011;9213;50.858;3.964;2023-09-19T03:38:23;9.23;;;2.50;;
18176;SDS011;9213;50.858;3.964;2023-09-19T03:40:50;11.13;;;3.40;;
18176;SDS011;9213;50.858;3.964;2023-09-19T03:43:17;13.03;;;3.20;;
18176;SDS011;9213;50.858;3.964;2023-09-19T03:45:45;11.60;;;2.60;;
18176;SDS011;9213;50.858;3.964;2023-09-19T03:48:13;13.40;;;2.97;;
18176;SDS011;9213;50.858;3.964;2023-09-19T03:50:40;12.20;;;2.67;;
18176;SDS011;9213;50.858;3.964;2023-09-19T03:53:09;14.07;;;3.33;;
18176;SDS011;9213;50.858;3.964;2023-09-19T03:55:36;15.23;;;2.90;;
18176;SDS011;9213;50.858;3.964;2023-09-19T03:58:04;8.83;;;2.60;;
18176;SDS011;9213;50.858;3.964;2023-09-19T04:00:31;10.97;;;2.90;;
18176;SDS011;9213;50.858;3.964;2023-09-19T04:03:00;15.80;;;2.60;;
18176;SDS011;9213;50.858;3.964;2023-09-19T04:05:31;8.20;;;2.63;;
18176;SDS011;9213;50.858;3.964;2023-09-19T04:07:58;17.03;;;3.10;;
18176;SDS011;9213;50.858;3.964;2023-09-19T04:10:25;16.83;;;2.80;;
18176;SDS011;9213;50.858;3.964;2023-09-19T04:12:53;11.53;;;2.47;;
18176;SDS011;9213;50.858;3.964;2023-09-19T04:15:21;8.40;;;2.73;;
18176;SDS011;9213;50.858;3.964;2023-09-19T04:17:48;10.53;;;2.70;;
18176;SDS011;9213;50.858;3.964;2023-09-19T04:20:17;16.40;;;3.20;;
18176;SDS011;9213;50.858;3.964;2023-09-19T04:22:44;14.03;;;2.60;;
18176;SDS011;9213;50.858;3.964;2023-09-19T04:25:12;13.83;;;3.20;;
18176;SDS011;9213;50.858;3.964;2023-09-19T04:27:39;10.40;;;2.63;;
18176;SDS011;9213;50.858;3.964;2023-09-19T04:30:07;12.73;;;3.10;;
18176;SDS011;9213;50.858;3.964;2023-09-19T04:32:36;12.90;;;3.27;;
18176;SDS011;9213;50.858;3.964;2023-09-19T04:35:05;14.93;;;3.30;;
18176;SDS011;9213;50.858;3.964;2023-09-19T04:37:36;10.63;;;3.17;;
18176;SDS011;9213;50.858;3.964;2023-09-19T04:40:05;13.30;;;2.50;;
18176;SDS011;9213;50.858;3.964;2023-09-19T04:42:37;12.40;;;2.50;;
18176;SDS011;9213;50.858;3.964;2023-09-19T04:45:05;11.07;;;2.47;;
18176;SDS011;9213;50.858;3.964;2023-09-19T04:47:34;12.70;;;2.33;;
18176;SDS011;9213;50.858;3.964;2023-09-19T04:50:03;11.20;;;3.30;;
18176;SDS011;9213;50.858;3.964;2023-09-19T04:52:38;13.37;;;2.87;;
18176;SDS011;9213;50.858;3.964;2023-09-19T04:55:07;14.47;;;3.07;;
18176;SDS011;9213;50.858;3.964;2023-09-19T04:57:35;15.20;;;3.43;;
18176;SDS011;9213;50.858;3.964;2023-09-19T05:00:04;12.83;;;3.00;;
18176;SDS011;9213;50.858;3.964;2023-09-19T05:02:37;16.47;;;3.40;;
18176;SDS011;9213;50.858;3.964;2023-09-19T05:05:05;12.43;;;2.87;;
18176;SDS011;9213;50.858;3.964;2023-09-19T05:07:33;14.43;;;2.67;;
18176;SDS011;9213;50.858;3.964;2023-09-19T05:10:01;9.77;;;2.40;;
18176;SDS011;9213;50.858;3.964;2023-09-19T05:12:30;13.97;;;2.70;;
18176;SDS011;9213;50.858;3.964;2023-09-19T05:14:58;16.60;;;2.90;;
18176;SDS011;9213;50.858;3.964;2023-09-19T05:17:26;18.57;;;3.20;;
18176;SDS011;9213;50.858;3.964;2023-09-19T05:19:53;11.60;;;2.70;;
18176;SDS011;9213;50.858;3.964;2023-09-19T05:22:20;15.30;;;3.67;;
18176;SDS011;9213;50.858;3.964;2023-09-19T05:24:47;11.93;;;2.60;;
18176;SDS011;9213;50.858;3.964;2023-09-19T05:27:15;14.63;;;3.47;;
18176;SDS011;9213;50.858;3.964;2023-09-19T05:29:42;7.93;;;2.47;;
18176;SDS011;9213;50.858;3.964;2023-09-19T05:32:09;9.70;;;2.27;;
18176;SDS011;9213;50.858;3.964;2023-09-19T05:34:36;11.47;;;2.70;;
18176;SDS011;9213;50.858;3.964;2023-09-19T05:37:04;15.27;;;3.20;;
18176;SDS011;9213;50.858;3.964;2023-09-19T05:39:32;11.57;;;2.67;;
18176;SDS011;9213;50.858;3.964;2023-09-19T05:41:59;12.73;;;3.40;;
18176;SDS011;9213;50.858;3.964;2023-09-19T05:44:27;11.37;;;2.47;;
18176;SDS011;9213;50.858;3.964;2023-09-19T05:46:54;10.80;;;2.60;;
18176;SDS011;9213;50.858;3.964;2023-09-19T05:49:23;8.80;;;2.10;;
18176;SDS011;9213;50.858;3.964;2023-09-19T05:51:50;16.60;;;3.00;;
18176;SDS011;9213;50.858;3.964;2023-09-19T05:54:19;11.13;;;2.60;;
18176;SDS011;9213;50.858;3.964;2023-09-19T05:56:46;15.67;;;2.53;;
18176;SDS011;9213;50.858;3.964;2023-09-19T05:59:14;14.33;;;3.10;;
18176;SDS011;9213;50.858;3.964;2023-09-19T06:01:42;10.43;;;2.57;;
18176;SDS011;9213;50.858;3.964;2023-09-19T06:04:09;13.73;;;2.57;;
18176;SDS011;9213;50.858;3.964;2023-09-19T06:06:36;10.27;;;2.43;;
18176;SDS011;9213;50.858;3.964;2023-09-19T06:09:05;10.23;;;2.57;;
18176;SDS011;9213;50.858;3.964;2023-09-19T06:11:33;10.70;;;2.40;;
18176;SDS011;9213;50.858;3.964;2023-09-19T06:14:00;10.30;;;2.57;;
18176;SDS011;9213;50.858;3.964;2023-09-19T06:16:28;8.03;;;1.97;;
18176;SDS011;9213;50.858;3.964;2023-09-19T06:18:56;18.30;;;2.87;;
18176;SDS011;9213;50.858;3.964;2023-09-19T06:21:24;15.20;;;2.43;;
18176;SDS011;9213;50.858;3.964;2023-09-19T06:23:51;9.10;;;2.17;;
18176;SDS011;9213;50.858;3.964;2023-09-19T06:26:19;13.27;;;2.90;;
18176;SDS011;9213;50.858;3.964;2023-09-19T06:28:46;9.07;;;2.87;;
18176;SDS011;9213;50.858;3.964;2023-09-19T06:31:13;12.90;;;2.57;;
18176;SDS011;9213;50.858;3.964;2023-09-19T06:33:40;7.43;;;2.60;;
18176;SDS011;9213;50.858;3.964;2023-09-19T06:36:09;12.53;;;2.87;;
18176;SDS011;9213;50.858;3.964;2023-09-19T06:38:36;8.03;;;2.40;;
18176;SDS011;9213;50.858;3.964;2023-09-19T06:41:04;9.17;;;1.97;;
18176;SDS011;9213;50.858;3.964;2023-09-19T06:43:32;7.87;;;2.90;;
18176;SDS011;9213;50.858;3.964;2023-09-19T06:46:00;10.83;;;2.63;;
18176;SDS011;9213;50.858;3.964;2023-09-19T06:48:27;6.50;;;1.97;;
18176;SDS011;9213;50.858;3.964;2023-09-19T06:50:55;8.47;;;2.30;;
18176;SDS011;9213;50.858;3.964;2023-09-19T06:53:24;7.13;;;2.23;;
18176;SDS011;9213;50.858;3.964;2023-09-19T06:55:51;8.43;;;2.37;;
18176;SDS011;9213;50.858;3.964;2023-09-19T06:58:19;8.60;;;2.33;;
18176;SDS011;9213;50.858;3.964;2023-09-19T07:00:46;11.67;;;2.20;;
18176;SDS011;9213;50.858;3.964;2023-09-19T07:03:15;10.20;;;2.30;;
18176;SDS011;9213;50.858;3.964;2023-09-19T07:05:47;7.50;;;2.53;;
18176;SDS011;9213;50.858;3.964;2023-09-19T07:08:14;7.53;;;2.50;;
18176;SDS011;9213;50.858;3.964;2023-09-19T07:10:43;7.80;;;2.47;;
18176;SDS011;9213;50.858;3.964;2023-09-19T07:13:13;5.53;;;1.83;;
18176;SDS011;9213;50.858;3.964;2023-09-19T07:15:42;9.35;;;2.50;;
18176;SDS011;9213;50.858;3.964;2023-09-19T07:18:12;8.70;;;2.70;;
18176;SDS011;9213;50.858;3.964;2023-09-19T07:20:41;8.07;;;2.30;;
18176;SDS011;9213;50.858;3.964;2023-09-19T07:23:13;7.75;;;2.38;;
18176;SDS011;9213;50.858;3.964;2023-09-19T07:25:42;9.38;;;2.35;;
18176;SDS011;9213;50.858;3.964;2023-09-19T07:28:09;7.40;;;2.47;;
18176;SDS011;9213;50.858;3.964;2023-09-19T07:30:36;11.77;;;2.40;;
18176;SDS011;9213;50.858;3.964;2023-09-19T07:33:04;8.98;;;2.08;;
18176;SDS011;9213;50.858;3.964;2023-09-19T07:35:31;7.72;;;2.47;;
18176;SDS011;9213;50.858;3.964;2023-09-19T07:37:58;12.75;;;2.78;;
18176;SDS011;9213;50.858;3.964;2023-09-19T07:40:27;9.45;;;2.55;;
18176;SDS011;9213;50.858;3.964;2023-09-19T07:42:56;10.30;;;2.30;;
18176;SDS011;9213;50.858;3.964;2023-09-19T07:45:26;9.98;;;2.97;;
18176;SDS011;9213;50.858;3.964;2023-09-19T07:47:55;11.63;;;2.50;;
18176;SDS011;9213;50.858;3.964;2023-09-19T07:50:22;9.07;;;2.83;;
18176;SDS011;9213;50.858;3.964;2023-09-19T07:52:51;8.13;;;2.28;;
18176;SDS011;9213;50.858;3.964;2023-09-19T07:55:19;8.75;;;2.58;;
18176;SDS011;9213;50.858;3.964;2023-09-19T07:57:48;8.05;;;2.35;;
18176;SDS011;9213;50.858;3.964;2023-09-19T08:00:17;11.45;;;2.65;;
18176;SDS011;9213;50.858;3.964;2023-09-19T08:02:44;11.45;;;2.30;;
18176;SDS011;9213;50.858;3.964;2023-09-19T08:05:12;7.05;;;2.55;;
18176;SDS011;9213;50.858;3.964;2023-09-19T08:07:42;14.90;;;3.03;;
18176;SDS011;9213;50.858;3.964;2023-09-19T08:10:10;10.30;;;2.50;;
18176;SDS011;9213;50.858;3.964;2023-09-19T08:12:38;11.88;;;2.70;;
18176;SDS011;9213;50.858;3.964;2023-09-19T08:15:11;10.07;;;2.45;;
18176;SDS011;9213;50.858;3.964;2023-09-19T08:17:40;10.35;;;2.63;;
18176;SDS011;9213;50.858;3.964;2023-09-19T08:20:07;9.60;;;2.88;;
18176;SDS011;9213;50.858;3.964;2023-09-19T08:22:41;8.98;;;2.30;;
18176;SDS011;9213;50.858;3.964;2023-09-19T08:25:11;10.82;;;2.58;;
18176;SDS011;9213;50.858;3.964;2023-09-19T08:27:38;10.52;;;2.38;;
18176;SDS011;9213;50.858;3.964;2023-09-19T08:30:05;8.88;;;2.35;;
18176;SDS011;9213;50.858;3.964;2023-09-19T08:32:33;12.07;;;2.92;;
18176;SDS011;9213;50.858;3.964;2023-09-19T08:35:01;7.63;;;2.40;;
18176;SDS011;9213;50.858;3.964;2023-09-19T08:37:29;8.00;;;1.95;;
18176;SDS011;9213;50.858;3.964;2023-09-19T08:39:57;11.98;;;2.35;;
18176;SDS011;9213;50.858;3.964;2023-09-19T08:42:24;9.00;;;2.10;;
18176;SDS011;9213;50.858;3.964;2023-09-19T08:44:52;8.93;;;2.15;;
18176;SDS011;9213;50.858;3.964;2023-09-19T08:47:22;5.60;;;2.25;;
18176;SDS011;9213;50.858;3.964;2023-09-19T08:50:03;8.07;;;2.50;;
18176;SDS011;9213;50.858;3.964;2023-09-19T08:52:41;9.00;;;2.40;;
18176;SDS011;9213;50.858;3.964;2023-09-19T08:55:11;9.30;;;2.25;;
18176;SDS011;9213;50.858;3.964;2023-09-19T08:57:45;8.15;;;2.40;;
18176;SDS011;9213;50.858;3.964;2023-09-19T09:00:15;7.53;;;2.28;;
18176;SDS011;9213;50.858;3.964;2023-09-19T09:02:45;6.88;;;2.42;;
18176;SDS011;9213;50.858;3.964;2023-09-19T09:05:14;8.80;;;2.42;;
18176;SDS011;9213;50.858;3.964;2023-09-19T09:07:47;10.75;;;2.65;;
18176;SDS011;9213;50.858;3.964;2023-09-19T09:10:16;9.90;;;2.17;;
18176;SDS011;9213;50.858;3.964;2023-09-19T09:12:43;8.93;;;2.10;;
18176;SDS011;9213;50.858;3.964;2023-09-19T09:15:11;9.45;;;2.17;;
18176;SDS011;9213;50.858;3.964;2023-09-19T09:17:41;8.60;;;1.90;;
18176;SDS011;9213;50.858;3.964;2023-09-19T09:20:10;6.13;;;1.85;;
18176;SDS011;9213;50.858;3.964;2023-09-19T09:22:39;5.45;;;2.03;;
18176;SDS011;9213;50.858;3.964;2023-09-19T09:25:17;6.75;;;1.85;;
18176;SDS011;9213;50.858;3.964;2023-09-19T09:27:45;7.18;;;1.98;;
18176;SDS011;9213;50.858;3.964;2023-09-19T09:30:32;7.53;;;1.77;;
18176;SDS011;9213;50.858;3.964;2023-09-19T09:33:09;9.32;;;1.95;;
18176;SDS011;9213;50.858;3.964;2023-09-19T09:35:37;6.95;;;1.70;;
18176;SDS011;9213;50.858;3.964;2023-09-19T09:38:14;7.45;;;1.95;;
18176;SDS011;9213;50.858;3.964;2023-09-19T09:40:47;8.65;;;1.92;;
18176;SDS011;9213;50.858;3.964;2023-09-19T09:43:31;8.90;;;2.17;;
18176;SDS011;9213;50.858;3.964;2023-09-19T09:46:12;6.85;;;1.60;;
18176;SDS011;9213;50.858;3.964;2023-09-19T09:48:57;9.02;;;1.90;;
18176;SDS011;9213;50.858;3.964;2023-09-19T09:51:41;9.88;;;1.83;;
18176;SDS011;9213;50.858;3.964;2023-09-19T09:54:13;6.82;;;1.88;;
18176;SDS011;9213;50.858;3.964;2023-09-19T09:56:52;7.72;;;1.52;;
18176;SDS011;9213;50.858;3.964;2023-09-19T10:02:13;4.65;;;1.50;;
18176;SDS011;9213;50.858;3.964;2023-09-19T10:04:45;5.68;;;1.90;;
18176;SDS011;9213;50.858;3.964;2023-09-19T10:07:24;10.38;;;2.00;;
18176;SDS011;9213;50.858;3.964;2023-09-19T10:09:58;6.13;;;1.92;;
18176;SDS011;9213;50.858;3.964;2023-09-19T10:12:34;5.25;;;1.52;;
18176;SDS011;9213;50.858;3.964;2023-09-19T10:15:05;5.97;;;1.60;;
18176;SDS011;9213;50.858;3.964;2023-09-19T10:17:36;6.60;;;1.52;;
18176;SDS011;9213;50.858;3.964;2023-09-19T10:20:05;6.70;;;1.70;;
18176;SDS011;9213;50.858;3.964;2023-09-19T10:22:43;5.03;;;1.52;;
18176;SDS011;9213;50.858;3.964;2023-09-19T10:25:23;7.18;;;1.45;;
18176;SDS011;9213;50.858;3.964;2023-09-19T10:27:54;5.03;;;1.60;;
18176;SDS011;9213;50.858;3.964;2023-09-19T10:30:22;5.90;;;1.33;;
18176;SDS011;9213;50.858;3.964;2023-09-19T10:32:53;5.70;;;1.50;;
18176;SDS011;9213;50.858;3.964;2023-09-19T10:35:25;5.32;;;1.38;;
18176;SDS011;9213;50.858;3.964;2023-09-19T10:37:54;5.75;;;1.50;;
18176;SDS011;9213;50.858;3.964;2023-09-19T10:40:25;6.10;;;1.50;;
18176;SDS011;9213;50.858;3.964;2023-09-19T10:42:58;4.28;;;1.65;;
18176;SDS011;9213;50.858;3.964;2023-09-19T10:45:29;4.88;;;1.33;;
18176;SDS011;9213;50.858;3.964;2023-09-19T10:47:58;2.97;;;1.48;;
18176;SDS011;9213;50.858;3.964;2023-09-19T10:50:25;5.22;;;1.35;;
18176;SDS011;9213;50.858;3.964;2023-09-19T10:52:57;4.50;;;1.40;;
18176;SDS011;9213;50.858;3.964;2023-09-19T10:55:31;5.78;;;1.42;;
18176;SDS011;9213;50.858;3.964;2023-09-19T10:58:00;4.47;;;1.02;;
18176;SDS011;9213;50.858;3.964;2023-09-19T11:00:53;3.95;;;1.23;;
18176;SDS011;9213;50.858;3.964;2023-09-19T11:03:21;4.15;;;1.20;;
18176;SDS011;9213;50.858;3.964;2023-09-19T11:06:05;4.15;;;1.17;;
18176;SDS011;9213;50.858;3.964;2023-09-19T11:08:54;4.00;;;1.58;;
18176;SDS011;9213;50.858;3.964;2023-09-19T11:20:23;2.15;;;1.10;;
18176;SDS011;9213;50.858;3.964;2023-09-19T11:23:19;3.55;;;1.42;;
18176;SDS011;9213;50.858;3.964;2023-09-19T11:25:51;5.78;;;1.30;;
18176;SDS011;9213;50.858;3.964;2023-09-19T11:28:31;3.95;;;1.48;;
18176;SDS011;9213;50.858;3.964;2023-09-19T11:40:47;4.68;;;1.15;;
18176;SDS011;9213;50.858;3.964;2023-09-19T11:43:37;3.85;;;1.58;;
18176;SDS011;9213;50.858;3.964;2023-09-19T11:46:08;4.32;;;1.20;;
18176;SDS011;9213;50.858;3.964;2023-09-19T11:48:37;3.80;;;1.10;;
18176;SDS011;9213;50.858;3.964;2023-09-19T11:51:16;3.53;;;0.93;;
18176;SDS011;9213;50.858;3.964;2023-09-19T11:53:54;5.30;;;1.73;;
18176;SDS011;9213;50.858;3.964;2023-09-19T11:56:25;3.47;;;1.17;;
18176;SDS011;9213;50.858;3.964;2023-09-19T11:58:55;3.55;;;1.50;;
18176;SDS011;9213;50.858;3.964;2023-09-19T12:01:23;4.07;;;1.10;;
18176;SDS011;9213;50.858;3.964;2023-09-19T12:03:54;5.35;;;1.90;;
18176;SDS011;9213;50.858;3.964;2023-09-19T12:06:23;3.88;;;1.20;;
18176;SDS011;9213;50.858;3.964;2023-09-19T12:08:52;1.70;;;1.00;;
18176;SDS011;9213;50.858;3.964;2023-09-19T12:11:21;3.03;;;1.13;;
18176;SDS011;9213;50.858;3.964;2023-09-19T12:13:49;1.58;;;0.93;;
18176;SDS011;9213;50.858;3.964;2023-09-19T12:16:20;5.88;;;1.33;;
18176;SDS011;9213;50.858;3.964;2023-09-19T12:18:48;2.78;;;1.25;;
18176;SDS011;9213;50.858;3.964;2023-09-19T12:21:26;3.30;;;1.50;;
18176;SDS011;9213;50.858;3.964;2023-09-19T12:23:59;5.38;;;1.30;;
18176;SDS011;9213;50.858;3.964;2023-09-19T12:26:29;4.57;;;1.10;;
18176;SDS011;9213;50.858;3.964;2023-09-19T12:29:03;3.90;;;1.30;;
18176;SDS011;9213;50.858;3.964;2023-09-19T12:31:32;6.35;;;1.60;;
18176;SDS011;9213;50.858;3.964;2023-09-19T12:34:02;4.70;;;1.42;;
18176;SDS011;9213;50.858;3.964;2023-09-19T12:36:29;4.15;;;1.35;;
18176;SDS011;9213;50.858;3.964;2023-09-19T12:38:59;3.05;;;1.30;;
18176;SDS011;9213;50.858;3.964;2023-09-19T12:41:33;2.78;;;1.30;;
18176;SDS011;9213;50.858;3.964;2023-09-19T12:44:00;4.45;;;1.38;;
18176;SDS011;9213;50.858;3.964;2023-09-19T12:46:31;7.70;;;1.85;;
18176;SDS011;9213;50.858;3.964;2023-09-19T12:49:17;4.13;;;1.30;;
18176;SDS011;9213;50.858;3.964;2023-09-19T12:51:45;7.00;;;1.52;;
18176;SDS011;9213;50.858;3.964;2023-09-19T12:54:13;5.00;;;1.50;;
18176;SDS011;9213;50.858;3.964;2023-09-19T12:56:41;6.07;;;1.60;;
18176;SDS011;9213;50.858;3.964;2023-09-19T12:59:10;3.13;;;1.40;;
18176;SDS011;9213;50.858;3.964;2023-09-19T13:01:40;3.47;;;1.30;;
18176;SDS011;9213;50.858;3.964;2023-09-19T13:04:11;2.95;;;1.30;;
18176;SDS011;9213;50.858;3.964;2023-09-19T13:06:43;5.28;;;1.63;;
18176;SDS011;9213;50.858;3.964;2023-09-19T13:09:11;2.75;;;1.50;;
18176;SDS011;9213;50.858;3.964;2023-09-19T13:11:40;2.45;;;1.20;;
18176;SDS011;9213;50.858;3.964;2023-09-19T13:14:19;4.97;;;1.38;;
18176;SDS011;9213;50.858;3.964;2023-09-19T13:16:56;4.28;;;1.30;;
18176;SDS011;9213;50.858;3.964;2023-09-19T13:19:38;2.65;;;1.25;;
18176;SDS011;9213;50.858;3.964;2023-09-19T13:25:05;2.65;;;1.35;;
18176;SDS011;9213;50.858;3.964;2023-09-19T13:27:33;4.03;;;1.30;;
18176;SDS011;9213;50.858;3.964;2023-09-19T13:30:00;4.75;;;1.20;;
18176;SDS011;9213;50.858;3.964;2023-09-19T13:32:29;6.57;;;1.40;;
18176;SDS011;9213;50.858;3.964;2023-09-19T13:34:56;3.08;;;1.33;;
18176;SDS011;9213;50.858;3.964;2023-09-19T13:37:23;3.80;;;1.50;;
18176;SDS011;9213;50.858;3.964;2023-09-19T13:39:51;2.95;;;1.50;;
18176;SDS011;9213;50.858;3.964;2023-09-19T13:42:18;3.85;;;1.80;;
18176;SDS011;9213;50.858;3.964;2023-09-19T13:44:47;3.05;;;1.40;;
18176;SDS011;9213;50.858;3.964;2023-09-19T13:47:14;5.40;;;1.80;;
18176;SDS011;9213;50.858;3.964;2023-09-19T13:49:43;3.53;;;1.42;;
18176;SDS011;9213;50.858;3.964;2023-09-19T13:52:09;5.30;;;1.80;;
18176;SDS011;9213;50.858;3.964;2023-09-19T13:54:38;4.32;;;1.52;;
18176;SDS011;9213;50.858;3.964;2023-09-19T13:57:05;4.35;;;1.52;;
18176;SDS011;9213;50.858;3.964;2023-09-19T13:59:32;3.92;;;1.55;;
18176;SDS011;9213;50.858;3.964;2023-09-19T14:01:59;6.60;;;1.60;;
18176;SDS011;9213;50.858;3.964;2023-09-19T14:04:27;5.00;;;1.77;;
18176;SDS011;9213;50.858;3.964;2023-09-19T14:06:57;6.25;;;1.60;;
18176;SDS011;9213;50.858;3.964;2023-09-19T14:09:25;3.30;;;1.45;;
18176;SDS011;9213;50.858;3.964;2023-09-19T14:11:53;3.50;;;1.33;;
18176;SDS011;9213;50.858;3.964;2023-09-19T14:14:19;4.60;;;1.60;;
18176;SDS011;9213;50.858;3.964;2023-09-19T14:16:47;7.35;;;1.83;;
18176;SDS011;9213;50.858;3.964;2023-09-19T14:19:14;4.05;;;2.00;;
18176;SDS011;9213;50.858;3.964;2023-09-19T14:21:41;5.28;;;1.63;;
18176;SDS011;9213;50.858;3.964;2023-09-19T14:24:10;5.25;;;1.80;;
18176;SDS011;9213;50.858;3.964;2023-09-19T14:26:40;7.97;;;2.08;;
18176;SDS011;9213;50.858;3.964;2023-09-19T14:29:07;4.65;;;1.60;;
18176;SDS011;9213;50.858;3.964;2023-09-19T14:31:36;4.50;;;1.65;;
18176;SDS011;9213;50.858;3.964;2023-09-19T14:34:05;4.28;;;1.48;;
18176;SDS011;9213;50.858;3.964;2023-09-19T14:36:35;5.10;;;1.83;;
18176;SDS011;9213;50.858;3.964;2023-09-19T14:39:02;5.57;;;1.65;;
18176;SDS011;9213;50.858;3.964;2023-09-19T14:41:31;5.05;;;1.83;;
18176;SDS011;9213;50.858;3.964;2023-09-19T14:43:57;8.73;;;1.80;;
18176;SDS011;9213;50.858;3.964;2023-09-19T14:46:24;4.88;;;1.83;;
18176;SDS011;9213;50.858;3.964;2023-09-19T14:48:51;5.55;;;1.50;;
18176;SDS011;9213;50.858;3.964;2023-09-19T14:51:18;8.07;;;1.90;;
18176;SDS011;9213;50.858;3.964;2023-09-19T14:53:45;4.45;;;1.77;;
18176;SDS011;9213;50.858;3.964;2023-09-19T14:56:13;5.38;;;1.50;;
18176;SDS011;9213;50.858;3.964;2023-09-19T14:58:44;4.57;;;1.70;;
18176;SDS011;9213;50.858;3.964;2023-09-19T15:01:12;5.30;;;1.95;;
18176;SDS011;9213;50.858;3.964;2023-09-19T15:03:40;5.00;;;1.60;;
18176;SDS011;9213;50.858;3.964;2023-09-19T15:06:09;5.60;;;1.90;;
18176;SDS011;9213;50.858;3.964;2023-09-19T15:08:39;3.83;;;1.58;;
18176;SDS011;9213;50.858;3.964;2023-09-19T15:11:11;4.32;;;1.58;;
18176;SDS011;9213;50.858;3.964;2023-09-19T15:13:38;6.88;;;2.10;;
18176;SDS011;9213;50.858;3.964;2023-09-19T15:16:07;10.32;;;2.35;;
18176;SDS011;9213;50.858;3.964;2023-09-19T15:18:35;5.82;;;1.80;;
18176;SDS011;9213;50.858;3.964;2023-09-19T15:21:04;5.50;;;1.90;;
18176;SDS011;9213;50.858;3.964;2023-09-19T15:23:31;6.22;;;2.40;;
18176;SDS011;9213;50.858;3.964;2023-09-19T15:25:59;8.23;;;2.10;;
18176;SDS011;9213;50.858;3.964;2023-09-19T15:28:26;5.22;;;2.22;;
18176;SDS011;9213;50.858;3.964;2023-09-19T15:30:57;6.05;;;2.50;;
18176;SDS011;9213;50.858;3.964;2023-09-19T15:33:26;5.28;;;2.10;;
18176;SDS011;9213;50.858;3.964;2023-09-19T15:36:00;6.90;;;2.03;;